sensor_id;sensor_type;location;lat;lon;timestamp;pressure;altitude;pressure_sealevel;temperature;humidity
64739;BME280;51175;51.186;0.276;2024-01-15T00:00:10;100615.91;;;3.65;81.62
64739;BME280;51175;51.186;0.276;2024-01-15T00:00:40;100615.13;;;3.65;81.64
64739;BME280;51175;51.186;0.276;2024-01-15T00:01:11;100612.50;;;3.65;81.66
64739;BME280;51175;51.186;0.276;2024-01-15T00:01:43;100613.28;;;3.65;81.73
64739;BME280;51175;51.186;0.276;2024-01-15T00:02:14;100615.13;;;3.65;81.72
64739;BME280;51175;51.186;0.276;2024-01-15T00:02:44;100617.75;;;3.65;81.68
64739;BME280;51175;51.186;0.276;2024-01-15T00:03:15;100613.13;;;3.67;81.89
64739;BME280;51175;51.186;0.276;2024-01-15T00:03:45;100617.53;;;3.66;81.71
64739;BME280;51175;51.186;0.276;2024-01-15T00:04:15;100612.50;;;3.65;82.12
64739;BME280;51175;51.186;0.276;2024-01-15T00:04:46;100614.09;;;3.66;81.63
64739;BME280;51175;51.186;0.276;2024-01-15T00:05:16;100616.13;;;3.64;81.74
64739;BME280;51175;51.186;0.276;2024-01-15T00:05:47;100614.72;;;3.61;81.61
64739;BME280;51175;51.186;0.276;2024-01-15T00:06:17;100616.53;;;3.60;81.62
64739;BME280;51175;51.186;0.276;2024-01-15T00:06:48;100612.53;;;3.58;81.42
64739;BME280;51175;51.186;0.276;2024-01-15T00:07:19;100616.19;;;3.57;81.40
64739;BME280;51175;51.186;0.276;2024-01-15T00:07:49;100619.78;;;3.56;81.38
64739;BME280;51175;51.186;0.276;2024-01-15T00:08:20;100611.94;;;3.56;81.23
64739;BME280;51175;51.186;0.276;2024-01-15T00:08:50;100613.97;;;3.54;81.26
64739;BME280;51175;51.186;0.276;2024-01-15T00:09:20;100618.41;;;3.53;81.43
64739;BME280;51175;51.186;0.276;2024-01-15T00:09:51;100617.59;;;3.53;81.33
64739;BME280;51175;51.186;0.276;2024-01-15T00:10:21;100618.41;;;3.53;81.45
64739;BME280;51175;51.186;0.276;2024-01-15T00:10:52;100616.81;;;3.52;81.30
64739;BME280;51175;51.186;0.276;2024-01-15T00:11:22;100621.22;;;3.52;81.33
64739;BME280;51175;51.186;0.276;2024-01-15T00:11:52;100623.81;;;3.52;81.20
64739;BME280;51175;51.186;0.276;2024-01-15T00:12:23;100623.22;;;3.50;81.00
64739;BME280;51175;51.186;0.276;2024-01-15T00:12:53;100614.59;;;3.49;80.88
64739;BME280;51175;51.186;0.276;2024-01-15T00:13:24;100620.59;;;3.50;80.70
64739;BME280;51175;51.186;0.276;2024-01-15T00:13:54;100618.22;;;3.48;80.85
64739;BME280;51175;51.186;0.276;2024-01-15T00:14:24;100618.41;;;3.46;80.44
64739;BME280;51175;51.186;0.276;2024-01-15T00:14:55;100615.81;;;3.46;80.42
64739;BME280;51175;51.186;0.276;2024-01-15T00:15:25;100617.84;;;3.44;80.19
64739;BME280;51175;51.186;0.276;2024-01-15T00:15:58;100616.81;;;3.45;80.16
64739;BME280;51175;51.186;0.276;2024-01-15T00:16:28;100617.84;;;3.44;80.02
64739;BME280;51175;51.186;0.276;2024-01-15T00:16:59;100620.47;;;3.44;79.99
64739;BME280;51175;51.186;0.276;2024-01-15T00:17:29;100617.84;;;3.44;80.03
64739;BME280;51175;51.186;0.276;2024-01-15T00:17:59;100618.06;;;3.43;79.53
64739;BME280;51175;51.186;0.276;2024-01-15T00:18:30;100618.06;;;3.43;79.66
64739;BME280;51175;51.186;0.276;2024-01-15T00:19:00;100619.03;;;3.42;79.50
64739;BME280;51175;51.186;0.276;2024-01-15T00:19:30;100622.47;;;3.42;79.33
64739;BME280;51175;51.186;0.276;2024-01-15T00:20:02;100622.66;;;3.41;79.24
64739;BME280;51175;51.186;0.276;2024-01-15T00:20:33;100616.63;;;3.40;78.85
64739;BME280;51175;51.186;0.276;2024-01-15T00:21:04;100624.47;;;3.40;78.99
64739;BME280;51175;51.186;0.276;2024-01-15T00:21:34;100619.25;;;3.40;78.72
64739;BME280;51175;51.186;0.276;2024-01-15T00:22:04;100622.66;;;3.41;78.68
64739;BME280;51175;51.186;0.276;2024-01-15T00:22:35;100613.25;;;3.40;78.59
64739;BME280;51175;51.186;0.276;2024-01-15T00:23:05;100615.03;;;3.39;78.44
64739;BME280;51175;51.186;0.276;2024-01-15T00:23:36;100617.66;;;3.39;78.37
64739;BME280;51175;51.186;0.276;2024-01-15T00:24:06;100615.84;;;3.40;78.40
64739;BME280;51175;51.186;0.276;2024-01-15T00:24:37;100620.88;;;3.41;78.44
64739;BME280;51175;51.186;0.276;2024-01-15T00:25:07;100614.84;;;3.41;78.39
64739;BME280;51175;51.186;0.276;2024-01-15T00:25:37;100614.03;;;3.40;78.43
64739;BME280;51175;51.186;0.276;2024-01-15T00:26:08;100611.22;;;3.42;78.43
64739;BME280;51175;51.186;0.276;2024-01-15T00:26:39;100620.47;;;3.44;78.72
64739;BME280;51175;51.186;0.276;2024-01-15T00:27:09;100613.41;;;3.45;78.62
64739;BME280;51175;51.186;0.276;2024-01-15T00:27:39;100607.97;;;3.46;78.65
64739;BME280;51175;51.186;0.276;2024-01-15T00:28:10;100608.38;;;3.43;78.68
64739;BME280;51175;51.186;0.276;2024-01-15T00:28:40;100611.81;;;3.44;78.64
64739;BME280;51175;51.186;0.276;2024-01-15T00:29:11;100611.00;;;3.43;78.79
64739;BME280;51175;51.186;0.276;2024-01-15T00:29:41;100607.59;;;3.43;78.67
64739;BME280;51175;51.186;0.276;2024-01-15T00:30:12;100613.03;;;3.41;78.80
64739;BME280;51175;51.186;0.276;2024-01-15T00:30:43;100610.44;;;3.41;78.83
64739;BME280;51175;51.186;0.276;2024-01-15T00:31:16;100608.81;;;3.40;78.79
64739;BME280;51175;51.186;0.276;2024-01-15T00:31:47;100602.81;;;3.40;78.90
64739;BME280;51175;51.186;0.276;2024-01-15T00:32:17;100602.00;;;3.39;78.83
64739;BME280;51175;51.186;0.276;2024-01-15T00:32:48;100601.78;;;3.41;78.75
64739;BME280;51175;51.186;0.276;2024-01-15T00:33:18;100606.19;;;3.40;78.99
64739;BME280;51175;51.186;0.276;2024-01-15T00:33:48;100614.03;;;3.40;78.83
64739;BME280;51175;51.186;0.276;2024-01-15T00:34:19;100608.81;;;3.40;78.93
64739;BME280;51175;51.186;0.276;2024-01-15T00:34:49;100604.59;;;3.39;78.93
64739;BME280;51175;51.186;0.276;2024-01-15T00:35:20;100609.00;;;3.39;78.74
64739;BME280;51175;51.186;0.276;2024-01-15T00:35:51;100613.66;;;3.37;78.96
64739;BME280;51175;51.186;0.276;2024-01-15T00:36:21;100612.03;;;3.35;78.86
64739;BME280;51175;51.186;0.276;2024-01-15T00:36:52;100611.25;;;3.35;79.02
64739;BME280;51175;51.186;0.276;2024-01-15T00:37:22;100611.25;;;3.35;79.01
64739;BME280;51175;51.186;0.276;2024-01-15T00:37:52;100608.06;;;3.33;78.92
64739;BME280;51175;51.186;0.276;2024-01-15T00:38:23;100606.44;;;3.32;78.78
64739;BME280;51175;51.186;0.276;2024-01-15T00:38:53;100607.66;;;3.29;78.76
64739;BME280;51175;51.186;0.276;2024-01-15T00:39:24;100607.84;;;3.28;78.51
64739;BME280;51175;51.186;0.276;2024-01-15T00:39:55;100610.69;;;3.26;78.41
64739;BME280;51175;51.186;0.276;2024-01-15T00:40:25;100613.28;;;3.26;78.52
64739;BME280;51175;51.186;0.276;2024-01-15T00:40:56;100606.47;;;3.25;78.53
64739;BME280;51175;51.186;0.276;2024-01-15T00:41:27;100610.88;;;3.25;78.43
64739;BME280;51175;51.186;0.276;2024-01-15T00:41:58;100611.09;;;3.23;78.52
64739;BME280;51175;51.186;0.276;2024-01-15T00:42:28;100608.09;;;3.19;78.47
64739;BME280;51175;51.186;0.276;2024-01-15T00:42:58;100610.28;;;3.22;78.61
64739;BME280;51175;51.186;0.276;2024-01-15T00:43:29;100607.09;;;3.20;78.62
64739;BME280;51175;51.186;0.276;2024-01-15T00:43:59;100605.47;;;3.19;78.66
64739;BME280;51175;51.186;0.276;2024-01-15T00:44:30;100606.50;;;3.18;78.53
64739;BME280;51175;51.186;0.276;2024-01-15T00:45:00;100611.09;;;3.16;78.70
64739;BME280;51175;51.186;0.276;2024-01-15T00:45:31;100606.91;;;3.15;78.50
64739;BME280;51175;51.186;0.276;2024-01-15T00:46:02;100606.91;;;3.15;78.55
64739;BME280;51175;51.186;0.276;2024-01-15T00:46:33;100608.72;;;3.15;78.53
64739;BME280;51175;51.186;0.276;2024-01-15T00:47:03;100605.31;;;3.14;78.60
64739;BME280;51175;51.186;0.276;2024-01-15T00:47:37;100609.72;;;3.14;78.61
64739;BME280;51175;51.186;0.276;2024-01-15T00:48:07;100603.13;;;3.11;78.47
64739;BME280;51175;51.186;0.276;2024-01-15T00:48:38;100601.28;;;3.12;78.51
64739;BME280;51175;51.186;0.276;2024-01-15T00:49:08;100603.31;;;3.09;78.64
64739;BME280;51175;51.186;0.276;2024-01-15T00:49:38;100605.13;;;3.09;78.15
64739;BME280;51175;51.186;0.276;2024-01-15T00:50:09;100606.13;;;3.08;78.36
64739;BME280;51175;51.186;0.276;2024-01-15T00:50:39;100600.09;;;3.07;78.40
64739;BME280;51175;51.186;0.276;2024-01-15T00:51:10;100608.16;;;3.06;78.25
64739;BME280;51175;51.186;0.276;2024-01-15T00:51:40;100603.94;;;3.05;78.19
64739;BME280;51175;51.186;0.276;2024-01-15T00:52:10;100611.97;;;3.03;77.99
64739;BME280;51175;51.186;0.276;2024-01-15T00:52:41;100603.34;;;3.03;78.15
64739;BME280;51175;51.186;0.276;2024-01-15T00:53:11;100598.31;;;3.01;78.06
64739;BME280;51175;51.186;0.276;2024-01-15T00:53:42;100605.34;;;3.01;78.10
64739;BME280;51175;51.186;0.276;2024-01-15T00:54:12;100605.56;;;2.99;78.11
64739;BME280;51175;51.186;0.276;2024-01-15T00:54:43;100607.34;;;2.98;77.99
64739;BME280;51175;51.186;0.276;2024-01-15T00:55:13;100610.97;;;2.97;77.89
64739;BME280;51175;51.186;0.276;2024-01-15T00:55:43;100607.56;;;2.97;77.98
64739;BME280;51175;51.186;0.276;2024-01-15T00:56:14;100598.94;;;2.96;77.88
64739;BME280;51175;51.186;0.276;2024-01-15T00:56:44;100605.97;;;2.96;77.84
64739;BME280;51175;51.186;0.276;2024-01-15T00:57:15;100605.16;;;2.95;77.92
64739;BME280;51175;51.186;0.276;2024-01-15T00:57:45;100597.31;;;2.95;77.99
64739;BME280;51175;51.186;0.276;2024-01-15T00:58:15;100597.53;;;2.94;77.99
64739;BME280;51175;51.186;0.276;2024-01-15T00:58:46;100597.53;;;2.94;77.98
64739;BME280;51175;51.186;0.276;2024-01-15T00:59:16;100607.97;;;2.94;77.89
64739;BME280;51175;51.186;0.276;2024-01-15T00:59:47;100598.53;;;2.93;78.21
64739;BME280;51175;51.186;0.276;2024-01-15T01:00:18;100603.75;;;2.93;77.93
64739;BME280;51175;51.186;0.276;2024-01-15T01:00:48;100604.78;;;2.92;77.85
64739;BME280;51175;51.186;0.276;2024-01-15T01:01:19;100601.56;;;2.90;77.86
64739;BME280;51175;51.186;0.276;2024-01-15T01:01:49;100600.53;;;2.91;77.74
64739;BME280;51175;51.186;0.276;2024-01-15T01:02:19;100598.94;;;2.90;77.71
64739;BME280;51175;51.186;0.276;2024-01-15T01:02:50;100604.16;;;2.90;77.65
64739;BME280;51175;51.186;0.276;2024-01-15T01:03:20;100600.75;;;2.89;77.60
64739;BME280;51175;51.186;0.276;2024-01-15T01:03:51;100599.97;;;2.89;77.75
64739;BME280;51175;51.186;0.276;2024-01-15T01:04:21;100600.97;;;2.88;77.67
64739;BME280;51175;51.186;0.276;2024-01-15T01:04:52;100597.56;;;2.87;77.71
64739;BME280;51175;51.186;0.276;2024-01-15T01:05:22;100596.75;;;2.87;77.68
64739;BME280;51175;51.186;0.276;2024-01-15T01:05:52;100595.94;;;2.86;77.75
64739;BME280;51175;51.186;0.276;2024-01-15T01:06:23;100600.38;;;2.85;77.89
64739;BME280;51175;51.186;0.276;2024-01-15T01:06:53;100601.16;;;2.86;77.67
64739;BME280;51175;51.186;0.276;2024-01-15T01:07:23;100604.78;;;2.85;77.57
64739;BME280;51175;51.186;0.276;2024-01-15T01:07:54;100599.56;;;2.85;77.74
64739;BME280;51175;51.186;0.276;2024-01-15T01:08:24;100599.56;;;2.85;77.76
64739;BME280;51175;51.186;0.276;2024-01-15T01:08:55;100595.16;;;2.85;77.74
64739;BME280;51175;51.186;0.276;2024-01-15T01:09:25;100599.56;;;2.85;77.56
64739;BME280;51175;51.186;0.276;2024-01-15T01:09:55;100594.34;;;2.85;77.76
64739;BME280;51175;51.186;0.276;2024-01-15T01:10:26;100594.34;;;2.85;77.67
64739;BME280;51175;51.186;0.276;2024-01-15T01:10:56;100591.75;;;2.85;77.74
64739;BME280;51175;51.186;0.276;2024-01-15T01:11:27;100590.94;;;2.84;77.79
64739;BME280;51175;51.186;0.276;2024-01-15T01:11:57;100594.75;;;2.82;77.79
64739;BME280;51175;51.186;0.276;2024-01-15T01:12:28;100590.56;;;2.81;77.80
64739;BME280;51175;51.186;0.276;2024-01-15T01:12:59;100590.75;;;2.79;77.67
64739;BME280;51175;51.186;0.276;2024-01-15T01:13:30;100590.16;;;2.77;77.63
64739;BME280;51175;51.186;0.276;2024-01-15T01:14:00;100593.78;;;2.76;77.43
64739;BME280;51175;51.186;0.276;2024-01-15T01:14:32;100589.75;;;2.73;77.55
64739;BME280;51175;51.186;0.276;2024-01-15T01:15:02;100592.38;;;2.73;77.51
64739;BME280;51175;51.186;0.276;2024-01-15T01:15:33;100593.38;;;2.72;77.55
64739;BME280;51175;51.186;0.276;2024-01-15T01:16:03;100586.56;;;2.71;77.63
64739;BME280;51175;51.186;0.276;2024-01-15T01:16:34;100596.19;;;2.71;77.48
64739;BME280;51175;51.186;0.276;2024-01-15T01:17:08;100593.78;;;2.69;77.51
64739;BME280;51175;51.186;0.276;2024-01-15T01:17:39;100593.78;;;2.69;77.70
64739;BME280;51175;51.186;0.276;2024-01-15T01:18:09;100596.59;;;2.68;77.40
64739;BME280;51175;51.186;0.276;2024-01-15T01:18:40;100593.38;;;2.66;77.38
64739;BME280;51175;51.186;0.276;2024-01-15T01:19:10;100600.41;;;2.65;77.42
64739;BME280;51175;51.186;0.276;2024-01-15T01:19:40;100599.63;;;2.65;77.34
64739;BME280;51175;51.186;0.276;2024-01-15T01:20:11;100594.59;;;2.63;77.46
64739;BME280;51175;51.186;0.276;2024-01-15T01:20:41;100598.00;;;2.64;77.32
64739;BME280;51175;51.186;0.276;2024-01-15T01:21:12;100600.59;;;2.64;77.46
64739;BME280;51175;51.186;0.276;2024-01-15T01:21:42;100600.59;;;2.64;77.46
64739;BME280;51175;51.186;0.276;2024-01-15T01:22:12;100599.81;;;2.63;77.10
64739;BME280;51175;51.186;0.276;2024-01-15T01:22:43;100602.63;;;2.62;77.27
64739;BME280;51175;51.186;0.276;2024-01-15T01:23:13;100601.00;;;2.60;77.34
64739;BME280;51175;51.186;0.276;2024-01-15T01:23:44;100599.22;;;2.61;77.42
64739;BME280;51175;51.186;0.276;2024-01-15T01:24:14;100601.22;;;2.59;77.45
64739;BME280;51175;51.186;0.276;2024-01-15T01:24:44;100603.81;;;2.59;77.35
64739;BME280;51175;51.186;0.276;2024-01-15T01:25:15;100600.44;;;2.58;77.43
64739;BME280;51175;51.186;0.276;2024-01-15T01:25:45;100603.25;;;2.57;77.25
64739;BME280;51175;51.186;0.276;2024-01-15T01:26:17;100596.41;;;2.56;77.39
64739;BME280;51175;51.186;0.276;2024-01-15T01:26:47;100596.41;;;2.56;77.56
64739;BME280;51175;51.186;0.276;2024-01-15T01:27:19;100593.59;;;2.57;77.56
64739;BME280;51175;51.186;0.276;2024-01-15T01:27:49;100593.38;;;2.59;77.63
64739;BME280;51175;51.186;0.276;2024-01-15T01:28:19;100589.78;;;2.60;77.54
64739;BME280;51175;51.186;0.276;2024-01-15T01:28:50;100591.38;;;2.61;77.56
64739;BME280;51175;51.186;0.276;2024-01-15T01:29:20;100597.41;;;2.62;77.49
64739;BME280;51175;51.186;0.276;2024-01-15T01:29:51;100590.38;;;2.62;77.53
64739;BME280;51175;51.186;0.276;2024-01-15T01:30:22;100599.00;;;2.63;77.70
64739;BME280;51175;51.186;0.276;2024-01-15T01:30:52;100593.78;;;2.63;77.86
64739;BME280;51175;51.186;0.276;2024-01-15T01:31:23;100592.00;;;2.63;77.74
64739;BME280;51175;51.186;0.276;2024-01-15T01:31:54;100586.78;;;2.63;77.54
64739;BME280;51175;51.186;0.276;2024-01-15T01:32:24;100584.19;;;2.63;77.74
64739;BME280;51175;51.186;0.276;2024-01-15T01:32:54;100583.56;;;2.61;77.84
64739;BME280;51175;51.186;0.276;2024-01-15T01:33:25;100588.56;;;2.63;77.95
64739;BME280;51175;51.186;0.276;2024-01-15T01:33:55;100584.59;;;2.60;77.96
64739;BME280;51175;51.186;0.276;2024-01-15T01:34:29;100584.59;;;2.60;78.07
64739;BME280;51175;51.186;0.276;2024-01-15T01:35:00;100587.19;;;2.60;78.15
64739;BME280;51175;51.186;0.276;2024-01-15T01:35:30;100587.19;;;2.60;78.18
64739;BME280;51175;51.186;0.276;2024-01-15T01:36:01;100587.19;;;2.60;78.26
64739;BME280;51175;51.186;0.276;2024-01-15T01:36:31;100580.34;;;2.59;78.38
64739;BME280;51175;51.186;0.276;2024-01-15T01:37:01;100590.00;;;2.58;78.46
64739;BME280;51175;51.186;0.276;2024-01-15T01:37:32;100588.38;;;2.57;78.59
64739;BME280;51175;51.186;0.276;2024-01-15T01:38:04;100587.59;;;2.57;78.57
64739;BME280;51175;51.186;0.276;2024-01-15T01:38:35;100586.78;;;2.56;78.67
64739;BME280;51175;51.186;0.276;2024-01-15T01:39:07;100585.97;;;2.56;78.96
64739;BME280;51175;51.186;0.276;2024-01-15T01:39:37;100578.34;;;2.54;79.00
64739;BME280;51175;51.186;0.276;2024-01-15T01:40:08;100587.19;;;2.53;78.83
64739;BME280;51175;51.186;0.276;2024-01-15T01:40:39;100588.00;;;2.54;78.71
64739;BME280;51175;51.186;0.276;2024-01-15T01:41:09;100583.78;;;2.53;78.90
64739;BME280;51175;51.186;0.276;2024-01-15T01:41:40;100579.56;;;2.52;79.07
64739;BME280;51175;51.186;0.276;2024-01-15T01:42:11;100578.56;;;2.53;79.00
64739;BME280;51175;51.186;0.276;2024-01-15T01:42:42;100584.78;;;2.52;79.15
64739;BME280;51175;51.186;0.276;2024-01-15T01:43:13;100587.41;;;2.52;79.38
64739;BME280;51175;51.186;0.276;2024-01-15T01:43:43;100582.19;;;2.52;79.21
64739;BME280;51175;51.186;0.276;2024-01-15T01:44:13;100583.97;;;2.51;79.21
64739;BME280;51175;51.186;0.276;2024-01-15T01:44:44;100590.22;;;2.50;79.12
64739;BME280;51175;51.186;0.276;2024-01-15T01:45:14;100583.41;;;2.49;79.30
64739;BME280;51175;51.186;0.276;2024-01-15T01:45:45;100585.19;;;2.48;79.38
64739;BME280;51175;51.186;0.276;2024-01-15T01:46:15;100574.97;;;2.47;79.09
64739;BME280;51175;51.186;0.276;2024-01-15T01:46:46;100583.81;;;2.46;79.38
64739;BME280;51175;51.186;0.276;2024-01-15T01:47:16;100576.97;;;2.45;79.36
64739;BME280;51175;51.186;0.276;2024-01-15T01:47:47;100579.78;;;2.43;79.30
64739;BME280;51175;51.186;0.276;2024-01-15T01:48:18;100575.56;;;2.42;79.33
64739;BME280;51175;51.186;0.276;2024-01-15T01:48:49;100581.59;;;2.43;79.48
64739;BME280;51175;51.186;0.276;2024-01-15T01:49:19;100585.19;;;2.42;79.42
64739;BME280;51175;51.186;0.276;2024-01-15T01:49:49;100577.38;;;2.42;79.41
64739;BME280;51175;51.186;0.276;2024-01-15T01:50:20;100584.41;;;2.41;79.48
64739;BME280;51175;51.186;0.276;2024-01-15T01:50:55;100581.00;;;2.41;79.54
64739;BME280;51175;51.186;0.276;2024-01-15T01:51:27;100589.81;;;2.40;79.53
64739;BME280;51175;51.186;0.276;2024-01-15T01:51:59;100582.22;;;2.38;79.65
64739;BME280;51175;51.186;0.276;2024-01-15T01:52:30;100587.41;;;2.38;79.53
64739;BME280;51175;51.186;0.276;2024-01-15T01:53:01;100584.00;;;2.38;79.68
64739;BME280;51175;51.186;0.276;2024-01-15T01:53:35;100593.63;;;2.37;79.70
64739;BME280;51175;51.186;0.276;2024-01-15T01:54:08;100592.03;;;2.36;79.67
64739;BME280;51175;51.186;0.276;2024-01-15T01:54:39;100589.41;;;2.36;79.78
64739;BME280;51175;51.186;0.276;2024-01-15T01:55:11;100587.00;;;2.34;79.67
64739;BME280;51175;51.186;0.276;2024-01-15T01:55:43;100593.81;;;2.35;79.76
64739;BME280;51175;51.186;0.276;2024-01-15T01:56:13;100591.22;;;2.35;79.79
64739;BME280;51175;51.186;0.276;2024-01-15T01:56:45;100586.19;;;2.34;79.72
64739;BME280;51175;51.186;0.276;2024-01-15T01:57:17;100585.41;;;2.33;79.66
64739;BME280;51175;51.186;0.276;2024-01-15T01:57:48;100583.59;;;2.34;79.69
64739;BME280;51175;51.186;0.276;2024-01-15T01:58:19;100588.19;;;2.32;79.64
64739;BME280;51175;51.186;0.276;2024-01-15T01:58:50;100586.59;;;2.31;79.58
64739;BME280;51175;51.186;0.276;2024-01-15T01:59:22;100584.19;;;2.29;79.74
64739;BME280;51175;51.186;0.276;2024-01-15T01:59:53;100582.41;;;2.30;79.70
64739;BME280;51175;51.186;0.276;2024-01-15T02:00:24;100584.41;;;2.28;79.81
64739;BME280;51175;51.186;0.276;2024-01-15T02:00:54;100583.59;;;2.27;79.84
64739;BME280;51175;51.186;0.276;2024-01-15T02:01:25;100585.41;;;2.27;79.87
64739;BME280;51175;51.186;0.276;2024-01-15T02:01:55;100584.59;;;2.26;79.77
64739;BME280;51175;51.186;0.276;2024-01-15T02:02:26;100584.00;;;2.24;79.85
64739;BME280;51175;51.186;0.276;2024-01-15T02:02:59;100583.22;;;2.23;79.71
64739;BME280;51175;51.186;0.276;2024-01-15T02:03:30;100590.22;;;2.23;79.84
64739;BME280;51175;51.186;0.276;2024-01-15T02:04:01;100586.03;;;2.22;79.88
64739;BME280;51175;51.186;0.276;2024-01-15T02:04:32;100582.59;;;2.21;79.84
64739;BME280;51175;51.186;0.276;2024-01-15T02:05:04;100584.59;;;2.19;79.80
64739;BME280;51175;51.186;0.276;2024-01-15T02:05:36;100579.38;;;2.19;80.05
64739;BME280;51175;51.186;0.276;2024-01-15T02:06:07;100587.41;;;2.18;80.01
64739;BME280;51175;51.186;0.276;2024-01-15T02:06:38;100584.81;;;2.18;80.02
64739;BME280;51175;51.186;0.276;2024-01-15T02:07:08;100584.00;;;2.17;80.10
64739;BME280;51175;51.186;0.276;2024-01-15T02:07:40;100589.22;;;2.17;80.17
64739;BME280;51175;51.186;0.276;2024-01-15T02:08:11;100583.22;;;2.17;80.09
64739;BME280;51175;51.186;0.276;2024-01-15T02:08:43;100581.59;;;2.16;80.00
64739;BME280;51175;51.186;0.276;2024-01-15T02:09:14;100589.44;;;2.16;80.09
64739;BME280;51175;51.186;0.276;2024-01-15T02:09:45;100583.41;;;2.15;80.07
64739;BME280;51175;51.186;0.276;2024-01-15T02:10:15;100584.41;;;2.14;80.08
64739;BME280;51175;51.186;0.276;2024-01-15T02:10:46;100584.41;;;2.14;80.07
64739;BME280;51175;51.186;0.276;2024-01-15T02:11:16;100589.63;;;2.14;80.07
64739;BME280;51175;51.186;0.276;2024-01-15T02:11:47;100583.59;;;2.14;80.08
64739;BME280;51175;51.186;0.276;2024-01-15T02:12:18;100582.00;;;2.13;80.06
64739;BME280;51175;51.186;0.276;2024-01-15T02:12:48;100583.81;;;2.12;80.21
64739;BME280;51175;51.186;0.276;2024-01-15T02:13:20;100583.81;;;2.12;80.04
64739;BME280;51175;51.186;0.276;2024-01-15T02:13:50;100584.81;;;2.11;80.02
64739;BME280;51175;51.186;0.276;2024-01-15T02:14:21;100580.59;;;2.10;80.05
64739;BME280;51175;51.186;0.276;2024-01-15T02:14:53;100586.63;;;2.10;80.00
64739;BME280;51175;51.186;0.276;2024-01-15T02:15:23;100584.22;;;2.09;80.02
64739;BME280;51175;51.186;0.276;2024-01-15T02:15:53;100585.03;;;2.09;80.03
64739;BME280;51175;51.186;0.276;2024-01-15T02:16:24;100582.63;;;2.08;80.20
64739;BME280;51175;51.186;0.276;2024-01-15T02:16:54;100581.81;;;2.07;80.03
64739;BME280;51175;51.186;0.276;2024-01-15T02:17:25;100587.22;;;2.06;79.96
64739;BME280;51175;51.186;0.276;2024-01-15T02:18:28;100583.22;;;2.03;80.00
64739;BME280;51175;51.186;0.276;2024-01-15T02:18:58;100582.59;;;2.01;80.06
64739;BME280;51175;51.186;0.276;2024-01-15T02:19:29;100585.41;;;2.00;79.92
64739;BME280;51175;51.186;0.276;2024-01-15T02:19:59;100588.22;;;1.98;80.00
64739;BME280;51175;51.186;0.276;2024-01-15T02:20:30;100583.97;;;1.97;79.89
64739;BME280;51175;51.186;0.276;2024-01-15T02:21:00;100583.19;;;1.96;80.24
64739;BME280;51175;51.186;0.276;2024-01-15T02:21:31;100585.00;;;1.96;80.03
64739;BME280;51175;51.186;0.276;2024-01-15T02:22:02;100587.59;;;1.96;79.91
64739;BME280;51175;51.186;0.276;2024-01-15T02:22:32;100585.81;;;1.96;80.01
64739;BME280;51175;51.186;0.276;2024-01-15T02:23:14;100589.59;;;1.94;79.91
64739;BME280;51175;51.186;0.276;2024-01-15T02:23:44;100584.19;;;1.95;80.07
64739;BME280;51175;51.186;0.276;2024-01-15T02:24:15;100585.19;;;1.94;79.86
64739;BME280;51175;51.186;0.276;2024-01-15T02:24:45;100587.78;;;1.94;79.80
64739;BME280;51175;51.186;0.276;2024-01-15T02:25:16;100590.59;;;1.93;79.84
64739;BME280;51175;51.186;0.276;2024-01-15T02:25:47;100588.19;;;1.91;79.93
64739;BME280;51175;51.186;0.276;2024-01-15T02:26:17;100588.41;;;1.90;79.86
64739;BME280;51175;51.186;0.276;2024-01-15T02:26:48;100588.41;;;1.90;79.86
64739;BME280;51175;51.186;0.276;2024-01-15T02:27:19;100586.59;;;1.90;79.81
64739;BME280;51175;51.186;0.276;2024-01-15T02:27:50;100586.59;;;1.90;79.78
64739;BME280;51175;51.186;0.276;2024-01-15T02:28:21;100587.59;;;1.89;79.83
64739;BME280;51175;51.186;0.276;2024-01-15T02:28:51;100584.41;;;1.87;79.58
64739;BME280;51175;51.186;0.276;2024-01-15T02:29:22;100580.78;;;1.88;79.79
64739;BME280;51175;51.186;0.276;2024-01-15T02:29:52;100586.19;;;1.86;79.78
64739;BME280;51175;51.186;0.276;2024-01-15T02:30:25;100587.19;;;1.85;79.91
64739;BME280;51175;51.186;0.276;2024-01-15T02:30:55;100581.19;;;1.85;79.90
64739;BME280;51175;51.186;0.276;2024-01-15T02:31:26;100589.00;;;1.85;79.76
64739;BME280;51175;51.186;0.276;2024-01-15T02:31:56;100582.97;;;1.84;79.90
64739;BME280;51175;51.186;0.276;2024-01-15T02:32:27;100583.97;;;1.83;80.01
64739;BME280;51175;51.186;0.276;2024-01-15T02:32:57;100584.78;;;1.84;79.77
64739;BME280;51175;51.186;0.276;2024-01-15T02:33:30;100585.78;;;1.83;79.85
64739;BME280;51175;51.186;0.276;2024-01-15T02:34:01;100579.78;;;1.82;79.75
64739;BME280;51175;51.186;0.276;2024-01-15T02:34:34;100580.75;;;1.81;79.87
64739;BME280;51175;51.186;0.276;2024-01-15T02:35:04;100584.19;;;1.82;79.93
64739;BME280;51175;51.186;0.276;2024-01-15T02:35:35;100579.97;;;1.81;79.74
64739;BME280;51175;51.186;0.276;2024-01-15T02:36:09;100583.56;;;1.80;79.85
64739;BME280;51175;51.186;0.276;2024-01-15T02:36:39;100582.59;;;1.81;79.85
64739;BME280;51175;51.186;0.276;2024-01-15T02:37:10;100581.78;;;1.80;79.74
64739;BME280;51175;51.186;0.276;2024-01-15T02:37:40;100578.34;;;1.80;79.69
64739;BME280;51175;51.186;0.276;2024-01-15T02:38:11;100585.38;;;1.79;79.87
64739;BME280;51175;51.186;0.276;2024-01-15T02:38:41;100593.19;;;1.79;79.77
64739;BME280;51175;51.186;0.276;2024-01-15T02:39:12;100582.97;;;1.78;79.90
64739;BME280;51175;51.186;0.276;2024-01-15T02:39:43;100585.59;;;1.78;79.94
64739;BME280;51175;51.186;0.276;2024-01-15T02:40:13;100582.16;;;1.77;79.87
64739;BME280;51175;51.186;0.276;2024-01-15T02:40:46;100578.94;;;1.75;80.07
64739;BME280;51175;51.186;0.276;2024-01-15T02:41:17;100587.56;;;1.76;79.82
64739;BME280;51175;51.186;0.276;2024-01-15T02:41:47;100590.19;;;1.76;79.83
64739;BME280;51175;51.186;0.276;2024-01-15T02:42:20;100585.19;;;1.74;79.79
64739;BME280;51175;51.186;0.276;2024-01-15T02:42:50;100578.16;;;1.75;79.85
64739;BME280;51175;51.186;0.276;2024-01-15T02:43:21;100588.78;;;1.73;79.87